createdAt,value
2023-02-02T00:02:13.220Z,4036.9
2023-02-02T00:08:02.395Z,4038.3
2023-02-02T00:13:58.724Z,4036.1
2023-02-02T00:19:37.643Z,4036.4
2023-02-02T00:25:15.251Z,4036.2
2023-02-02T00:30:50.658Z,4035.6
2023-02-02T00:36:25.743Z,4033.1
2023-02-02T00:42:00.516Z,4034.6
2023-02-02T00:47:35.528Z,4033.1
2023-02-02T00:53:11.801Z,4032.6
2023-02-02T00:58:48.212Z,4032.1
2023-02-02T01:04:23.774Z,4030.1
2023-02-02T01:09:58.862Z,4032.6
2023-02-02T01:15:34.412Z,4032.1
2023-02-02T01:21:09.874Z,4029.5
2023-02-02T01:26:46.356Z,4031.2
2023-02-02T01:32:21.817Z,4031.7
2023-02-02T01:37:58.889Z,4030.1
2023-02-02T01:43:34.165Z,4029.2
2023-02-02T01:49:09.061Z,4027.7
2023-02-02T01:54:44.416Z,4025
2023-02-02T02:00:19.283Z,4026.9
2023-02-02T02:05:56.086Z,4026.7
2023-02-02T02:11:31.219Z,4025.4
2023-02-02T02:17:06.487Z,4025.4
2023-02-02T02:22:41.722Z,4021.3
2023-02-02T02:28:17.109Z,4022.5
2023-02-02T02:33:52.453Z,4024.4
2023-02-02T02:39:27.512Z,4022.8
2023-02-02T02:45:03.607Z,4021.3
2023-02-02T02:50:38.637Z,4022.2
2023-02-02T02:56:14.137Z,4022.2
2023-02-02T03:01:54.503Z,4025
2023-02-02T03:07:30.963Z,4020.3
2023-02-02T03:13:12.343Z,4024.2
2023-02-02T03:18:47.751Z,4025.4
2023-02-02T03:24:22.663Z,4018.8
2023-02-02T03:29:59.117Z,4023.4
2023-02-02T03:35:34.606Z,4022.2
2023-02-02T03:41:10.079Z,4026.5
2023-02-02T03:46:45.890Z,4021.3
2023-02-02T03:52:21.223Z,4020.8
2023-02-02T03:57:56.458Z,4023.2
2023-02-02T04:03:32.067Z,4020
2023-02-02T04:09:07.407Z,4020.8
2023-02-02T04:14:42.204Z,4018.3
2023-02-02T04:20:17.446Z,4019.5
2023-02-02T04:25:55.205Z,4019.5
2023-02-02T04:31:31.454Z,4020.8
2023-02-02T04:37:07.890Z,4018.3
2023-02-02T04:42:44.102Z,4021.8
2023-02-02T04:48:19.030Z,4016.3
2023-02-02T04:53:54.253Z,4015.5
2023-02-02T04:59:30.040Z,4016.3
2023-02-02T05:05:05.694Z,4017.8
2023-02-02T05:10:42.164Z,4019.2
2023-02-02T05:16:18.271Z,4013.1
2023-02-02T05:21:53.748Z,4015
2023-02-02T05:27:29.054Z,4012.5
2023-02-02T05:33:04.651Z,4014
2023-02-02T05:38:40.094Z,4012.8
2023-02-02T05:44:15.034Z,4015
2023-02-02T05:49:50.464Z,4013.5
2023-02-02T05:55:27.886Z,4009.9
2023-02-02T06:01:03.571Z,4013.3
2023-02-02T06:06:39.299Z,4011.6
2023-02-02T06:12:14.278Z,4015.3
2023-02-02T06:17:52.242Z,4010.3
2023-02-02T06:23:27.759Z,4013.3
2023-02-02T06:29:03.172Z,4012.6
2023-02-02T06:34:38.153Z,4010.8
2023-02-02T06:40:13.203Z,4008.6
2023-02-02T06:45:48.226Z,4004.6
2023-02-02T06:51:25.412Z,4009.3
2023-02-02T06:57:01.936Z,4008.1
2023-02-02T07:02:38.889Z,4008.9
2023-02-02T07:08:14.888Z,4008.8
2023-02-02T07:13:51.448Z,4010.6
2023-02-02T07:19:28.223Z,4008.8
2023-02-02T07:25:12.847Z,4003.9
2023-02-02T07:31:01.239Z,4002.6
2023-02-02T07:36:36.931Z,3992.5
2023-02-02T07:42:22.348Z,4002.1
2023-02-02T07:48:07.941Z,4013.3
2023-02-02T07:53:52.882Z,4019.8
2023-02-02T07:59:33.191Z,4014.5
2023-02-02T08:05:28.384Z,4018.3
2023-02-02T08:11:03.986Z,4026.5
2023-02-02T08:16:46.494Z,4034.4
2023-02-02T08:22:38.964Z,4033.7
2023-02-02T08:28:23.015Z,4169.9
2023-02-02T08:34:01.858Z,4188
2023-02-02T08:39:37.359Z,4208.1
2023-02-02T08:46:07.144Z,4165.9
2023-02-02T08:51:43.941Z,4227.5
2023-02-02T08:57:24.901Z,4225.4
2023-02-02T09:03:00.911Z,4195.5
2023-02-02T09:08:40.646Z,4170.6
2023-02-02T09:14:17.033Z,4222.2
2023-02-02T09:20:16.113Z,4189.5
2023-02-02T09:25:55.324Z,4188
2023-02-02T09:31:31.870Z,4178.3
2023-02-02T09:37:09.876Z,4226.7
2023-02-02T09:42:45.300Z,4191
2023-02-02T09:48:20.543Z,4223
2023-02-02T09:53:57.687Z,4181.6
2023-02-02T09:59:36.509Z,4218
2023-02-02T10:05:32.980Z,4201.9
2023-02-02T10:11:09.125Z,4183
2023-02-02T10:16:44.277Z,4228.7
2023-02-02T10:22:23.748Z,4185.3
2023-02-02T10:27:59.075Z,4184.7
2023-02-02T10:33:34.136Z,4198.9
2023-02-02T10:39:10.799Z,4185.8
2023-02-02T10:44:46.252Z,4178.5
2023-02-02T10:50:22.115Z,4187.5
2023-02-02T10:55:58.820Z,4184.5
2023-02-02T11:01:36.521Z,4169.4
2023-02-02T11:07:31.130Z,4189.3
2023-02-02T11:13:07.245Z,4162.4
2023-02-02T11:18:45.551Z,4182.3
2023-02-02T11:24:23.219Z,4192.4
2023-02-02T11:29:58.702Z,4193
2023-02-02T11:35:37.568Z,4156.5
2023-02-02T11:41:12.806Z,4180.8
2023-02-02T11:46:59.769Z,4148.6
2023-02-02T11:52:35.083Z,4163
2023-02-02T11:58:13.109Z,4155
2023-02-02T12:03:50.189Z,4168.6
2023-02-02T12:09:34.565Z,4180.5
2023-02-02T12:15:09.744Z,4149.3
2023-02-02T12:20:45.518Z,4151
2023-02-02T12:26:22.248Z,4153.7
2023-02-02T12:31:58.874Z,4164.4
2023-02-02T12:37:34.332Z,4178.8
2023-02-02T12:43:11.696Z,4162.9
2023-02-02T12:48:48.043Z,4173.8
2023-02-02T12:55:07.832Z,4175.9
2023-02-02T13:00:58.181Z,4168.9
2023-02-02T13:06:33.522Z,4192
2023-02-02T13:12:12.889Z,4189.5
2023-02-02T13:17:48.096Z,4189
2023-02-02T13:23:23.031Z,4196
2023-02-02T13:29:00.020Z,4185.5
2023-02-02T13:34:34.995Z,4175.8
2023-02-02T13:40:10.561Z,4171.9
2023-02-02T13:45:47.600Z,4177.4
2023-02-02T13:51:23.689Z,4206.8
2023-02-02T13:57:00.031Z,4199.4
2023-02-02T14:02:36.518Z,4182.1
2023-02-02T14:08:19.397Z,4195.9
2023-02-02T14:14:02.201Z,4210.4
2023-02-02T14:19:47.474Z,4195.4
2023-02-02T14:25:22.621Z,4200.6
2023-02-02T14:31:02.395Z,4202.2
2023-02-02T14:36:38.853Z,4197.4
2023-02-02T14:42:14.252Z,4183.1
2023-02-02T14:47:49.586Z,4192.9
2023-02-02T14:53:28.524Z,4213.5
2023-02-02T14:59:03.746Z,4201.4
2023-02-02T15:04:47.330Z,4200.2
2023-02-02T15:10:31.214Z,4198.4
2023-02-02T15:16:08.901Z,4194.2
2023-02-02T15:21:44.901Z,4189
2023-02-02T15:27:20.601Z,4193.2
2023-02-02T15:32:59.490Z,4171.3
2023-02-02T15:38:34.219Z,4167.6
2023-02-02T15:44:15.912Z,4167.6
2023-02-02T15:50:00.708Z,4166.7
2023-02-02T15:55:55.246Z,4167.9
2023-02-02T16:01:30.677Z,4162.9
2023-02-02T16:07:05.201Z,4165.1
2023-02-02T16:12:49.080Z,4161.2
2023-02-02T16:18:24.409Z,4160.2
2023-02-02T16:23:59.226Z,4155.5
2023-02-02T16:29:51.591Z,4157.9
2023-02-02T16:35:32.306Z,4151.5
2023-02-02T16:41:07.127Z,4148.1
2023-02-02T16:46:41.901Z,4147.1
2023-02-02T16:52:18.160Z,4147.5
2023-02-02T16:57:53.214Z,4148
2023-02-02T17:03:35.961Z,4146
2023-02-02T17:09:36.365Z,4147.5
2023-02-02T17:15:50.184Z,4144.8
2023-02-02T17:21:41.170Z,4144.1
2023-02-02T17:27:18.924Z,4146.1
2023-02-02T17:32:53.826Z,4141.3
2023-02-02T17:38:31.577Z,4140.3
2023-02-02T17:44:07.877Z,4138.3
2023-02-02T17:49:48.595Z,4140.8
2023-02-02T17:55:26.195Z,4140.1
2023-02-02T18:01:02.067Z,4136.4
2023-02-02T18:06:37.084Z,4137.1
2023-02-02T18:12:12.269Z,4142.1
2023-02-02T18:17:47.572Z,4137.1
2023-02-02T18:23:22.304Z,4139.8
2023-02-02T18:29:24.263Z,4137.8
2023-02-02T18:35:07.459Z,4137.4
2023-02-02T18:40:43.225Z,4137.1
2023-02-02T18:46:19.185Z,4136.4
2023-02-02T18:51:55.990Z,4140.4
2023-02-02T18:57:31.341Z,4140.4
2023-02-02T19:03:26.592Z,4136.9
2023-02-02T19:09:10.047Z,4135.7
2023-02-02T19:14:44.867Z,4137.8
2023-02-02T19:20:19.801Z,4136.2
2023-02-02T19:25:54.679Z,4136.4
2023-02-02T19:31:35.683Z,4136.7
2023-02-02T19:37:10.712Z,4137.2
2023-02-02T19:42:51.344Z,4134.1
2023-02-02T19:48:36.329Z,4137.9
2023-02-02T19:54:12.612Z,4133.7
2023-02-02T19:59:55.690Z,4135.2
2023-02-02T20:05:34.436Z,4135.1
2023-02-02T20:11:09.404Z,4137.1
2023-02-02T20:16:45.258Z,4133.1
2023-02-02T20:22:21.512Z,4134.9
2023-02-02T20:28:06.404Z,4133.7
2023-02-02T20:33:41.784Z,4129.2
2023-02-02T20:39:17.240Z,4130.7
2023-02-02T20:44:52.640Z,4130
2023-02-02T20:50:30.267Z,4132.9
2023-02-02T20:56:07.784Z,4128.9
2023-02-02T21:02:00.063Z,4127.4
2023-02-02T21:07:36.701Z,4126.7
2023-02-02T21:13:19.689Z,4129.2
2023-02-02T21:19:24.168Z,4127
2023-02-02T21:24:59.971Z,4122.7
2023-02-02T21:30:37.887Z,4125.5
2023-02-02T21:36:13.189Z,4123
2023-02-02T21:41:54.470Z,4121.3
2023-02-02T21:47:45.938Z,4119.3
2023-02-02T21:53:21.901Z,4124.5
2023-02-02T21:58:57.000Z,4121.8
2023-02-02T22:04:31.928Z,4120.8
2023-02-02T22:10:07.725Z,4120.2
2023-02-02T22:15:57.141Z,4120.7
2023-02-02T22:21:32.557Z,4121.2
2023-02-02T22:27:23.236Z,4120.8
2023-02-02T22:33:01.495Z,4117.7
2023-02-02T22:38:36.516Z,4119.5
2023-02-02T22:44:11.396Z,4117.5
2023-02-02T22:49:46.575Z,4115.1
2023-02-02T22:55:21.665Z,4114.1
2023-02-02T23:00:57.679Z,4115.5
2023-02-02T23:06:42.053Z,4116
2023-02-02T23:12:17.181Z,4113.1
2023-02-02T23:17:57.104Z,4112.5
2023-02-02T23:23:32.800Z,4110.4
2023-02-02T23:29:08.814Z,4111.1
2023-02-02T23:34:43.874Z,4111
2023-02-02T23:40:19.617Z,4109.4
2023-02-02T23:45:54.339Z,4110.8
2023-02-02T23:51:36.010Z,4109.4
2023-02-02T23:57:11.528Z,4109.4
